AirNav   Air Wisconsin pilot careers
 
 1109 users online  

9G5 Royalton Airport
Gasport, New York, USA

GOING TO GASPORT?


FAA INFORMATION EFFECTIVE 19 JULY 2018

Location

FAA Identifier: 9G5
Lat/Long: 43-10-55.2080N / 078-33-28.0990W
43-10.920133N / 078-33.468317W
43.1820022 / -78.5578053
(estimated)
Elevation: 628 ft. / 191 m (estimated)
Variation: 10W (1985)
From city: 1 mile SE of GASPORT, NY
Time zone: UTC -4 (UTC -5 during Standard Time)
Zip code: 14067

Airport Operations

Airport use: Open to the public
Activation date: 08/1961
Control tower: no
ARTCC: CLEVELAND CENTER
FSS: BUFFALO FLIGHT SERVICE STATION
NOTAMs facility: BUF (NOTAM-D service available)
Attendance: 0900-1800
Wind indicator: yes
Segmented circle: no
Lights: ACTVT MIRL RY 07/25-CTAF.

Airport Communications

CTAF/UNICOM: 122.8
WX ASOS at BUF (16 nm SW): PHONE 716-635-0532
WX ASOS at IAG (18 nm W): PHONE 716-297-6984
WX AWOS-3PT at GVQ (19 nm SE): 127.525 (585-343-6369)
  • CD THRU FLT SVCS 1-888-766-8267.

Nearby radio navigation aids

VOR radial/distance  VOR name  Freq  Var
BUFr022/15.7BUFFALO VOR/DME116.4008W
ROCr288/38.9ROCHESTER VOR/DME110.0012W

 
NDB name  Hdg/Dist  Freq  Var  ID
KLUMP029/11.623109WBU -... ..-
KATHI080/13.032910WIA .. .-

Airport Services

Fuel available: 100LL MOGAS
Parking: hangars and tiedowns
Airframe service: NONE
Powerplant service: NONE
Bottled oxygen: NONE
Bulk oxygen: NONE

Runway Information

Runway 7/25

Dimensions: 2530 x 35 ft. / 771 x 11 m
Surface: asphalt, in excellent condition
Runway edge lights: medium intensity
RUNWAY 7  RUNWAY 25
Gradient: 0.3%0.3%
Traffic pattern: leftleft
Displaced threshold: no300 ft.
Markings: NSTD, in good conditionNSTD, in good condition
Runway end identifier lights: nono
Obstructions: 15 ft. road, 231 ft. from runway, 2:1 slope to clear
2 TREES, 250FT AND 800FT BEYOND RWY 7 THRESHOLD, 78FT AND 105FT RIGHT OF CENTERLINE
65 ft. tree, 605 ft. from runway, 100 ft. left of centerline, 6:1 slope to clear

Airport Ownership and Management from official FAA records

Ownership: Privately-owned
Owner: ROYALTON AIRPORT, INC.
DALE & MACKEY RDS, PO BOX 64
GASPORT, NY 14067
Phone 716-946-5265
Manager: KENNETH MCARTHUR
RD 2
GASPORT, NY 14067
Phone 716-804-6857

Airport Operational Statistics

Aircraft based on the field: 41
Single engine airplanes: 35
Helicopters: 3
Ultralights: 3
    
Aircraft operations: avg 117/week *
82% local general aviation
16% transient general aviation
2% military
* for 12-month period ending 04 August 2017

Additional Remarks

ULTRA LGTS ON & INVOF ARPT.

Instrument Procedures

There are no published instrument procedures at 9G5.

Some nearby airports with instrument procedures:

0G0 - North Buffalo Suburban Airport (8 nm SW)
9G3 - Akron Airport (10 nm S)
9G6 - Pine Hill Airport (12 nm E)
KBUF - Buffalo Niagara International Airport (16 nm SW)
KIAG - Niagara Falls International Airport (18 nm W)
KGVQ - Genesee County Airport (19 nm SE)
 
Loc | Ops | Rwys | IFR | FBO | Links
Com | Nav | Svcs | Stats | Notes


 
Area around 9G5 (Royalton Airport)
 
Road maps at: MapQuest Bing Google
 
Aerial photo
WARNING: Photo may not be current or correct
Aerial photo of 9G5 (Royalton Airport)
Do you have a better or more recent aerial photo of Royalton Airport that you would like to share? If so, please send us your photo.

 
Sectional chart

 
Airport distance calculator
Flying to Royalton Airport? Find the distance to fly.

From to 9G5

Sunrise and sunset
Times for 22-Jul-2018
 Local
(UTC-4)
 Zulu
(UTC)
Morning civil twilight05:2209:22
Sunrise05:5509:55
Sunset20:4600:46
Evening civil twilight21:1901:19

Current date and time
Zulu (UTC)  22-Jul-2018 15:13:19
Local (UTC-4)  22-Jul-2018 11:13:19
 
METAR
KBUF 
17nm SW 
221454Z 10009KT 10SM FEW010 BKN012 OVC045 19/17 A2972 RMK AO2 RAE17 SLP060 P0000 60000 T01940172 55000
KIAG 
17nm W 
221500Z 10012KT 10SM OVC014 19/17 A2971 RMK AO2 T01940167 $
KGVQ 
19nm SE 
221456Z AUTO 11007KT 4SM BR OVC005 18/17 A2974 RMK AO2 RAE18 SLP092 P0013 60041 T01830172 55001
CYSN 
27nm W 
221449Z 09010G17KT 6SM -DZ BR BKN005 OVC016 20/20 A2969 RMK SF5SC3 SLP054 DENSITY ALT 1200FT
CWWZ 
29nm W 
221400Z AUTO 08019KT 16/16 RMK AO1 6020 PK WND 07024/1305 SLP058 T01590157 50026
TAF
KBUF 
17nm SW 
221423Z 2214/2312 06012KT P6SM VCSH OVC008 FM221500 08010KT P6SM VCSH BKN015 FM221700 19008KT P6SM BKN035 FM222300 VRB03KT P6SM BKN040 FM230200 13006KT P6SM BKN060
KIAG 
17nm W 
221423Z 2214/2312 08014G22KT P6SM VCSH OVC008 FM221500 10012KT P6SM VCSH OVC015 FM221800 20008KT P6SM BKN040 FM222300 VRB03KT P6SM BKN040 FM230200 13006KT P6SM BKN060
NOTAMs
Click for the latest NOTAMs
NOTAMs are issued by the DoD/FAA and will open in a separate window not controlled by AirNav.

 

 
 

FBO, Fuel Providers, and Aircraft Ground Support

  
 Business Name 
 
 Contact 
 
 Services / Description 
 
Fuel Prices
 
Comments
  
Tanger-Aire 716-804-6857
no information available

If you are affiliated with Tanger-Aire and would like to show here your services, contact info, web link, logo, and more, click here
100LL Mogas
FS --- $4.75 
PS $5.75 --- 
 Updated 20-Jul-2018
 
   1 read write
FS=Full service
PS=Pump service
Update Fuel Prices
 

Would you like to see your business listed on this page?

 If your business provides an interesting product or service to pilots, flight crews, aircraft, or users of the Royalton Airport, you should consider listing it here.  To start the listing process, click on the button below
 
Add a business
 

Other Pages about Royalton Airport

Update a link
 
Copyright © AirNav, LLC. All rights reserved. Privacy Policy  Contact